createdAt,value
2023-05-14T00:02:23.841Z,17.10
2023-05-14T00:05:16.778Z,10.68
2023-05-14T00:08:08.750Z,9.52
2023-05-14T00:10:53.589Z,10.05
2023-05-14T00:13:44.759Z,13.45
2023-05-14T00:16:35.872Z,12.27
2023-05-14T00:19:27.760Z,12.75
2023-05-14T00:22:12.780Z,9.38
2023-05-14T00:25:03.773Z,8.48
2023-05-14T00:27:54.761Z,10.63
2023-05-14T00:30:39.902Z,13.00
2023-05-14T00:33:30.759Z,9.55
2023-05-14T00:36:16.174Z,10.60
2023-05-14T00:39:07.770Z,10.23
2023-05-14T00:41:58.885Z,9.80
2023-05-14T00:44:50.772Z,11.00
2023-05-14T00:47:42.831Z,10.65
2023-05-14T00:50:27.830Z,12.68
2023-05-14T00:53:19.782Z,9.82
2023-05-14T00:56:05.280Z,9.90
2023-05-14T00:58:56.776Z,10.00
2023-05-14T01:01:42.121Z,12.38
2023-05-14T01:04:33.790Z,11.85
2023-05-14T01:07:37.288Z,11.95
2023-05-14T01:10:41.787Z,10.57
2023-05-14T01:13:46.612Z,9.53
2023-05-14T01:16:39.799Z,10.25
2023-05-14T01:19:43.694Z,11.88
2023-05-14T01:22:34.790Z,9.98
2023-05-14T01:25:26.768Z,9.43
2023-05-14T01:28:25.799Z,13.07
2023-05-14T01:31:24.783Z,12.68
2023-05-14T01:34:12.516Z,10.38
2023-05-14T01:37:04.781Z,10.95
2023-05-14T01:39:57.200Z,10.07
2023-05-14T01:42:49.849Z,10.10
2023-05-14T01:45:36.316Z,10.55
2023-05-14T01:48:27.795Z,14.95
2023-05-14T01:51:14.548Z,10.82
2023-05-14T01:54:05.801Z,13.40
2023-05-14T01:56:51.520Z,11.27
2023-05-14T01:59:42.801Z,9.57
2023-05-14T02:02:27.619Z,10.38
2023-05-14T02:05:19.780Z,12.80
2023-05-14T02:08:04.826Z,9.95
2023-05-14T02:10:56.790Z,10.23
2023-05-14T02:13:41.943Z,12.00
2023-05-14T02:16:33.889Z,10.70
2023-05-14T02:19:18.823Z,10.55
2023-05-14T02:22:09.794Z,12.05
2023-05-14T02:24:55.064Z,10.90
2023-05-14T02:27:46.800Z,10.05
2023-05-14T02:30:38.812Z,11.10
2023-05-14T02:33:23.834Z,11.93
2023-05-14T02:36:15.818Z,11.50
2023-05-14T02:39:07.025Z,10.33
2023-05-14T02:41:58.796Z,11.98
2023-05-14T02:44:44.089Z,12.88
2023-05-14T02:47:37.490Z,11.05
2023-05-14T02:50:23.367Z,10.32
2023-05-14T02:53:14.810Z,10.63
2023-05-14T02:55:59.831Z,15.52
2023-05-14T02:58:50.814Z,12.50
2023-05-14T03:01:35.627Z,12.77
2023-05-14T03:04:27.821Z,11.20
2023-05-14T03:07:19.802Z,11.33
2023-05-14T03:10:05.764Z,9.75
2023-05-14T03:12:57.819Z,12.27
2023-05-14T03:15:42.993Z,11.38
2023-05-14T03:18:36.934Z,10.98
2023-05-14T03:21:22.040Z,10.67
2023-05-14T03:24:13.840Z,11.90
2023-05-14T03:26:58.718Z,12.13
2023-05-14T03:29:50.816Z,15.10
2023-05-14T03:32:37.281Z,10.38
2023-05-14T03:35:28.805Z,13.13
2023-05-14T03:38:33.823Z,11.40
2023-05-14T03:41:26.805Z,9.45
2023-05-14T03:44:11.954Z,9.98
2023-05-14T03:47:03.853Z,12.68
2023-05-14T03:49:49.898Z,11.13
2023-05-14T03:52:40.850Z,11.43
2023-05-14T03:55:25.661Z,10.32
2023-05-14T03:58:20.831Z,9.43
2023-05-14T04:01:12.818Z,13.27
2023-05-14T04:04:03.930Z,10.80
2023-05-14T04:06:55.822Z,10.25
2023-05-14T04:09:40.601Z,11.10
2023-05-14T04:12:32.823Z,13.57
2023-05-14T04:15:17.818Z,13.25
2023-05-14T04:18:08.848Z,10.90
2023-05-14T04:20:53.742Z,9.60
2023-05-14T04:23:44.833Z,11.07
2023-05-14T04:26:29.677Z,10.30
2023-05-14T04:29:20.855Z,12.77
2023-05-14T04:32:06.598Z,10.47
2023-05-14T04:34:57.820Z,12.75
2023-05-14T04:37:56.876Z,10.93
2023-05-14T04:40:55.813Z,12.18
2023-05-14T04:43:46.846Z,11.93
2023-05-14T04:46:37.839Z,10.97
2023-05-14T04:49:22.649Z,11.38
2023-05-14T04:52:14.839Z,13.35
2023-05-14T04:54:59.521Z,10.93
2023-05-14T04:57:50.822Z,16.10
2023-05-14T05:00:35.743Z,12.83
2023-05-14T05:03:26.973Z,10.68
2023-05-14T05:06:18.845Z,12.15
2023-05-14T05:09:10.864Z,12.75
2023-05-14T05:11:56.210Z,11.13
2023-05-14T05:14:47.858Z,11.03
2023-05-14T05:17:32.769Z,12.50
2023-05-14T05:20:24.998Z,14.93
2023-05-14T05:23:10.183Z,10.50
2023-05-14T05:26:01.830Z,11.52
2023-05-14T05:28:46.992Z,10.27
2023-05-14T05:31:38.885Z,12.20
2023-05-14T05:34:29.873Z,13.15
2023-05-14T05:37:14.845Z,12.75
2023-05-14T05:40:12.847Z,10.93
2023-05-14T05:42:57.905Z,11.37
2023-05-14T05:45:48.840Z,10.45
2023-05-14T05:48:33.778Z,10.43
2023-05-14T05:51:24.849Z,11.02
2023-05-14T05:54:09.775Z,13.25
2023-05-14T05:57:00.861Z,10.27
2023-05-14T05:59:46.138Z,13.65
2023-05-14T06:02:38.004Z,11.90
2023-05-14T06:05:22.819Z,12.32
2023-05-14T06:08:14.877Z,13.95
2023-05-14T06:10:59.629Z,10.47
2023-05-14T06:13:50.878Z,14.05
2023-05-14T06:16:35.799Z,12.43
2023-05-14T06:19:26.847Z,12.75
2023-05-14T06:22:11.889Z,12.27
2023-05-14T06:25:02.881Z,16.23
2023-05-14T06:27:47.879Z,12.40
2023-05-14T06:30:38.844Z,14.07
2023-05-14T06:33:30.533Z,15.60
2023-05-14T06:36:21.862Z,15.85
2023-05-14T06:39:13.986Z,14.03
2023-05-14T06:42:13.852Z,13.63
2023-05-14T06:45:04.844Z,14.98
2023-05-14T06:47:49.697Z,14.57
2023-05-14T06:50:40.898Z,13.55
2023-05-14T06:53:25.680Z,14.57
2023-05-14T06:56:16.854Z,16.20
2023-05-14T06:59:02.210Z,14.25
2023-05-14T07:01:53.924Z,13.75
2023-05-14T07:04:38.884Z,16.02
2023-05-14T07:07:29.887Z,20.70
2023-05-14T07:10:14.930Z,16.70
2023-05-14T07:13:06.904Z,20.60
2023-05-14T07:15:51.785Z,15.32
2023-05-14T07:18:42.906Z,18.40
2023-05-14T07:21:27.917Z,17.60
2023-05-14T07:24:19.876Z,16.02
2023-05-14T07:27:05.128Z,16.83
2023-05-14T07:29:56.908Z,15.00
2023-05-14T07:32:42.273Z,16.15
2023-05-14T07:35:33.870Z,20.87
2023-05-14T07:38:25.889Z,12.80
2023-05-14T07:41:18.053Z,12.85
2023-05-14T07:44:09.877Z,13.20
2023-05-14T07:46:54.731Z,11.05
2023-05-14T07:49:45.873Z,10.53
2023-05-14T07:52:37.886Z,9.95
2023-05-14T07:55:29.872Z,12.35
2023-05-14T07:58:16.009Z,13.40
2023-05-14T08:01:08.895Z,12.77
2023-05-14T08:03:53.710Z,10.03
2023-05-14T08:06:44.921Z,10.25
2023-05-14T08:09:29.925Z,10.18
2023-05-14T08:12:22.905Z,9.85
2023-05-14T08:15:08.242Z,12.13
2023-05-14T08:17:59.942Z,8.57
2023-05-14T08:20:45.111Z,7.28
2023-05-14T08:23:36.911Z,7.50
2023-05-14T08:26:21.821Z,6.65
2023-05-14T08:29:14.689Z,8.50
2023-05-14T08:32:08.428Z,6.50
2023-05-14T08:35:02.944Z,6.60
2023-05-14T08:37:47.932Z,6.00
2023-05-14T08:40:45.958Z,6.40
2023-05-14T08:43:51.922Z,7.28
2023-05-14T08:46:38.561Z,6.53
2023-05-14T08:49:48.921Z,6.90
2023-05-14T08:52:34.614Z,6.90
2023-05-14T08:55:25.909Z,6.53
2023-05-14T08:58:11.147Z,5.97
2023-05-14T09:01:02.913Z,11.20
2023-05-14T09:03:48.463Z,8.20
2023-05-14T09:06:39.919Z,7.63
2023-05-14T09:09:26.392Z,6.93
2023-05-14T09:12:17.917Z,6.22
2023-05-14T09:15:03.325Z,7.27
2023-05-14T09:17:54.966Z,8.15
2023-05-14T09:20:39.709Z,6.75
2023-05-14T09:23:40.929Z,6.68
2023-05-14T09:26:26.807Z,8.40
2023-05-14T09:29:17.941Z,7.07
2023-05-14T09:32:05.344Z,10.20
2023-05-14T09:34:56.932Z,9.38
2023-05-14T09:37:43.646Z,8.98
2023-05-14T09:40:41.955Z,6.68
2023-05-14T09:43:33.958Z,7.30
2023-05-14T09:46:18.770Z,5.93
2023-05-14T09:49:09.959Z,5.57
2023-05-14T09:51:56.917Z,6.10
2023-05-14T09:54:48.951Z,5.03
2023-05-14T09:57:40.943Z,5.37
2023-05-14T10:00:32.939Z,5.25
2023-05-14T10:03:20.268Z,5.00
2023-05-14T10:06:12.938Z,6.97
2023-05-14T10:09:04.019Z,8.30
2023-05-14T10:11:59.959Z,8.13
2023-05-14T10:14:53.136Z,4.78
2023-05-14T10:17:50.037Z,5.30
2023-05-14T10:20:37.986Z,5.00
2023-05-14T10:23:29.964Z,5.18
2023-05-14T10:26:15.698Z,4.60
2023-05-14T10:29:07.969Z,8.25
2023-05-14T10:31:55.212Z,5.68
2023-05-14T10:34:49.968Z,5.43
2023-05-14T10:37:34.881Z,4.82
2023-05-14T10:40:32.975Z,6.23
2023-05-14T10:43:19.212Z,5.03
2023-05-14T10:46:11.006Z,6.80
2023-05-14T10:49:02.969Z,5.90
2023-05-14T10:51:55.967Z,6.93
2023-05-14T10:54:54.978Z,6.53
2023-05-14T10:57:48.967Z,5.90
2023-05-14T11:00:35.467Z,6.75
2023-05-14T11:03:28.029Z,5.32
2023-05-14T11:06:14.976Z,8.82
2023-05-14T11:09:07.993Z,5.50
2023-05-14T11:11:53.036Z,5.07
2023-05-14T11:14:44.992Z,5.85
2023-05-14T11:17:31.529Z,6.85
2023-05-14T11:20:24.253Z,8.50
2023-05-14T11:23:09.540Z,7.87
2023-05-14T11:26:03.077Z,6.38
2023-05-14T11:28:48.076Z,8.88
2023-05-14T11:31:40.035Z,11.35
2023-05-14T11:34:32.034Z,8.90
2023-05-14T11:37:17.288Z,9.27
2023-05-14T11:40:16.002Z,9.00
2023-05-14T11:43:00.849Z,7.75
2023-05-14T11:46:00.063Z,9.88
2023-05-14T11:48:45.480Z,10.55
2023-05-14T11:51:36.994Z,9.40
2023-05-14T11:54:29.000Z,8.85
2023-05-14T11:57:17.844Z,10.45
2023-05-14T12:00:11.013Z,9.07
2023-05-14T12:02:56.218Z,13.90
2023-05-14T12:06:01.027Z,9.57
2023-05-14T12:08:48.191Z,9.40
2023-05-14T12:11:42.037Z,11.65
2023-05-14T12:14:33.010Z,10.60
2023-05-14T12:17:22.528Z,9.27
2023-05-14T12:20:19.019Z,11.00
2023-05-14T12:23:04.153Z,12.88
2023-05-14T12:25:57.025Z,9.80
2023-05-14T12:28:50.007Z,9.25
2023-05-14T12:31:43.085Z,10.75
2023-05-14T12:34:28.085Z,9.20
2023-05-14T12:37:20.050Z,9.32
2023-05-14T12:40:18.036Z,10.25
2023-05-14T12:43:02.867Z,10.52
2023-05-14T12:45:54.020Z,9.80
2023-05-14T12:48:39.202Z,8.87
2023-05-14T12:51:30.047Z,11.38
2023-05-14T12:54:15.871Z,7.45
2023-05-14T12:57:07.040Z,7.40
2023-05-14T12:59:51.945Z,8.38
2023-05-14T13:02:44.015Z,9.10
2023-05-14T13:05:29.417Z,9.35
2023-05-14T13:08:24.017Z,13.57
2023-05-14T13:11:08.794Z,9.05
2023-05-14T13:14:00.037Z,8.90
2023-05-14T13:16:51.059Z,10.20
2023-05-14T13:19:36.244Z,6.18
2023-05-14T13:22:27.018Z,12.35
2023-05-14T13:25:12.072Z,9.82
2023-05-14T13:28:04.044Z,6.55
2023-05-14T13:31:10.311Z,7.23
2023-05-14T13:34:02.031Z,6.45
2023-05-14T13:36:47.859Z,6.13
2023-05-14T13:39:54.045Z,6.13
2023-05-14T13:42:52.062Z,8.23
2023-05-14T13:45:37.115Z,5.60
2023-05-14T13:48:28.044Z,6.70
2023-05-14T13:51:13.038Z,5.72
2023-05-14T13:54:04.037Z,5.95
2023-05-14T13:56:49.117Z,5.82
2023-05-14T13:59:41.053Z,8.03
2023-05-14T14:02:33.567Z,4.78
2023-05-14T14:05:26.238Z,9.50
2023-05-14T14:08:22.585Z,8.20
2023-05-14T14:11:15.057Z,8.55
2023-05-14T14:14:00.285Z,8.37
2023-05-14T14:16:52.089Z,7.78
2023-05-14T14:19:43.050Z,6.07
2023-05-14T14:22:29.113Z,10.18
2023-05-14T14:25:21.138Z,5.28
2023-05-14T14:28:13.081Z,8.40
2023-05-14T14:30:57.952Z,5.82
2023-05-14T14:33:49.062Z,7.07
2023-05-14T14:36:33.897Z,5.93
2023-05-14T14:39:25.063Z,9.45
2023-05-14T14:42:17.076Z,6.60
2023-05-14T14:45:02.184Z,8.05
2023-05-14T14:47:53.134Z,8.95
2023-05-14T14:50:38.212Z,8.23
2023-05-14T14:53:31.077Z,5.47
2023-05-14T14:56:15.870Z,3.97
2023-05-14T14:59:08.063Z,4.57
2023-05-14T15:01:53.123Z,5.88
2023-05-14T15:04:45.083Z,3.65
2023-05-14T15:07:39.085Z,4.30
2023-05-14T15:10:30.080Z,8.33
2023-05-14T15:13:14.954Z,5.32
2023-05-14T15:16:06.147Z,5.63
2023-05-14T15:18:51.066Z,3.45
2023-05-14T15:21:43.094Z,5.15
2023-05-14T15:24:27.916Z,4.27
2023-05-14T15:27:19.119Z,6.32
2023-05-14T15:30:11.091Z,7.00
2023-05-14T15:32:56.176Z,7.53
2023-05-14T15:35:48.110Z,8.13
2023-05-14T15:38:33.393Z,5.77
2023-05-14T15:41:32.097Z,10.55
2023-05-14T15:44:23.098Z,7.43
2023-05-14T15:47:14.099Z,7.03
2023-05-14T15:49:59.871Z,5.70
2023-05-14T15:52:52.116Z,5.23
2023-05-14T15:55:37.292Z,6.28
2023-05-14T15:58:29.081Z,4.15
2023-05-14T16:01:14.084Z,6.07
2023-05-14T16:04:05.199Z,6.68
2023-05-14T16:06:51.060Z,6.20
2023-05-14T16:09:43.101Z,5.15
2023-05-14T16:12:28.415Z,3.95
2023-05-14T16:15:20.104Z,5.20
2023-05-14T16:18:05.402Z,6.15
2023-05-14T16:20:57.119Z,8.20
2023-05-14T16:23:49.114Z,4.55
2023-05-14T16:26:34.398Z,5.07
2023-05-14T16:29:26.110Z,4.97
2023-05-14T16:32:11.197Z,4.72
2023-05-14T16:35:03.242Z,4.57
2023-05-14T16:37:48.617Z,4.28
2023-05-14T16:40:47.108Z,4.90
2023-05-14T16:43:38.113Z,5.53
2023-05-14T16:46:23.126Z,5.57
2023-05-14T16:49:15.118Z,5.07
2023-05-14T16:51:59.819Z,4.03
2023-05-14T16:54:51.099Z,6.50
2023-05-14T16:57:43.166Z,10.23
2023-05-14T17:00:35.117Z,9.80
2023-05-14T17:03:20.150Z,6.97
2023-05-14T17:06:12.129Z,5.20
2023-05-14T17:08:56.898Z,3.67
2023-05-14T17:11:48.128Z,6.93
2023-05-14T17:14:33.331Z,3.72
2023-05-14T17:17:25.153Z,7.90
2023-05-14T17:20:11.089Z,5.65
2023-05-14T17:23:02.099Z,3.85
2023-05-14T17:25:47.003Z,7.28
2023-05-14T17:28:39.117Z,5.25
2023-05-14T17:31:24.313Z,5.67
2023-05-14T17:34:16.110Z,4.80
2023-05-14T17:37:08.123Z,5.03
2023-05-14T17:39:59.197Z,4.65
2023-05-14T17:42:45.340Z,3.63
2023-05-14T17:45:52.663Z,6.80
2023-05-14T17:48:38.549Z,8.85
2023-05-14T17:51:30.146Z,5.95
2023-05-14T17:54:21.138Z,4.65
2023-05-14T17:57:13.156Z,4.85
2023-05-14T18:00:04.134Z,6.37
2023-05-14T18:02:55.257Z,4.45
2023-05-14T18:05:40.205Z,6.00
2023-05-14T18:08:32.152Z,4.97
2023-05-14T18:11:17.112Z,4.80
2023-05-14T18:14:08.161Z,4.37
2023-05-14T18:16:53.602Z,6.32
2023-05-14T18:19:47.161Z,8.00
2023-05-14T18:22:32.266Z,8.02
2023-05-14T18:25:23.422Z,6.10
2023-05-14T18:28:09.204Z,5.43
2023-05-14T18:31:00.196Z,5.65
2023-05-14T18:33:45.384Z,8.77
2023-05-14T18:36:37.189Z,5.72
2023-05-14T18:39:28.254Z,6.63
2023-05-14T18:42:27.178Z,5.77
2023-05-14T18:45:12.044Z,6.20
2023-05-14T18:48:04.321Z,6.90
2023-05-14T18:50:49.503Z,8.18
2023-05-14T18:53:41.166Z,6.95
2023-05-14T18:56:26.396Z,8.00
2023-05-14T18:59:18.169Z,5.75
2023-05-14T19:02:03.210Z,5.53
2023-05-14T19:04:54.187Z,5.45
2023-05-14T19:07:47.197Z,6.72
2023-05-14T19:10:32.014Z,4.93
2023-05-14T19:13:23.208Z,6.07
2023-05-14T19:16:08.153Z,9.48
2023-05-14T19:19:00.267Z,8.57
2023-05-14T19:21:52.204Z,7.63
2023-05-14T19:24:44.173Z,5.67
2023-05-14T19:27:29.368Z,6.03
2023-05-14T19:30:21.214Z,6.55
2023-05-14T19:33:06.298Z,7.57
2023-05-14T19:35:58.187Z,5.50
2023-05-14T19:38:43.316Z,5.87
2023-05-14T19:41:42.198Z,5.80
2023-05-14T19:44:27.233Z,7.20
2023-05-14T19:47:18.248Z,8.02
2023-05-14T19:50:10.213Z,8.90
2023-05-14T19:52:56.606Z,5.30
2023-05-14T19:55:48.200Z,7.57
2023-05-14T19:58:33.079Z,7.88
2023-05-14T20:01:25.251Z,6.15
2023-05-14T20:04:17.185Z,11.77
2023-05-14T20:07:02.728Z,10.07
2023-05-14T20:09:54.221Z,4.55
2023-05-14T20:12:39.321Z,4.45
2023-05-14T20:15:31.212Z,4.88
2023-05-14T20:18:16.137Z,4.68
2023-05-14T20:21:08.222Z,6.43
2023-05-14T20:23:53.289Z,3.10
2023-05-14T20:26:44.211Z,2.65
2023-05-14T20:29:29.553Z,3.53
2023-05-14T20:32:22.216Z,3.15
2023-05-14T20:35:07.518Z,2.47
2023-05-14T20:37:59.196Z,2.38
2023-05-14T20:41:04.237Z,2.85
2023-05-14T20:43:56.205Z,2.00
2023-05-14T20:46:41.419Z,2.58
2023-05-14T20:49:33.212Z,3.30
2023-05-14T20:52:18.743Z,2.67
2023-05-14T20:55:10.213Z,2.10
2023-05-14T20:57:55.348Z,2.25
2023-05-14T21:00:47.223Z,2.95
2023-05-14T21:03:32.355Z,2.50
2023-05-14T21:06:24.222Z,2.42
2023-05-14T21:09:10.544Z,2.40
2023-05-14T21:12:02.232Z,3.13
2023-05-14T21:14:54.232Z,3.17
2023-05-14T21:17:39.368Z,2.50
2023-05-14T21:20:30.233Z,4.40
2023-05-14T21:23:22.213Z,2.85
2023-05-14T21:26:07.210Z,4.00
2023-05-14T21:28:58.224Z,2.67
2023-05-14T21:31:43.354Z,3.50
2023-05-14T21:34:35.231Z,2.38
2023-05-14T21:37:28.222Z,3.05
2023-05-14T21:40:33.235Z,2.90
2023-05-14T21:43:25.228Z,5.20
2023-05-14T21:46:10.258Z,3.13
2023-05-14T21:49:02.298Z,4.43
2023-05-14T21:51:48.651Z,4.07
2023-05-14T21:54:40.253Z,3.03
2023-05-14T21:57:34.544Z,5.30
2023-05-14T22:00:29.231Z,5.43
2023-05-14T22:03:21.319Z,3.30
2023-05-14T22:06:13.264Z,4.85
2023-05-14T22:09:05.246Z,6.47
2023-05-14T22:11:50.166Z,4.15
2023-05-14T22:14:41.248Z,4.07
2023-05-14T22:17:27.945Z,4.18
2023-05-14T22:20:20.243Z,3.40
2023-05-14T22:23:05.315Z,3.75
2023-05-14T22:25:57.259Z,4.30
2023-05-14T22:28:50.235Z,4.73
2023-05-14T22:31:35.234Z,8.02
2023-05-14T22:34:27.229Z,6.60
2023-05-14T22:37:12.126Z,8.00
2023-05-14T22:40:04.241Z,5.35
2023-05-14T22:42:55.428Z,4.20
2023-05-14T22:45:47.257Z,6.45
2023-05-14T22:48:38.265Z,4.53
2023-05-14T22:51:29.253Z,4.80
2023-05-14T22:54:20.259Z,6.30
2023-05-14T22:57:13.254Z,5.33
2023-05-14T22:59:58.224Z,5.40
2023-05-14T23:02:49.315Z,4.57
2023-05-14T23:05:41.262Z,4.80
2023-05-14T23:08:26.225Z,6.18
2023-05-14T23:11:17.253Z,9.83
2023-05-14T23:14:08.254Z,7.47
2023-05-14T23:16:53.336Z,6.30
2023-05-14T23:19:45.267Z,8.68
2023-05-14T23:22:30.334Z,5.82
2023-05-14T23:25:21.274Z,6.80
2023-05-14T23:28:06.170Z,5.18
2023-05-14T23:30:57.263Z,9.02
2023-05-14T23:33:44.391Z,6.88
2023-05-14T23:36:38.273Z,10.30
2023-05-14T23:39:23.193Z,11.90
2023-05-14T23:42:21.280Z,11.25
2023-05-14T23:45:07.241Z,7.63
2023-05-14T23:48:00.351Z,12.20
2023-05-14T23:50:51.268Z,13.52
2023-05-14T23:53:42.257Z,9.23
2023-05-14T23:56:28.900Z,10.55
2023-05-14T23:59:20.263Z,7.00
